createdAt,value
2018-11-23T00:00:23.974Z,27.00
2018-11-23T00:02:59.816Z,25.77
2018-11-23T00:08:15.457Z,25.43
2018-11-23T00:10:50.345Z,34.93
2018-11-23T00:13:25.454Z,31.57
2018-11-23T00:16:00.712Z,33.27
2018-11-23T00:18:35.988Z,28.10
2018-11-23T00:21:10.428Z,27.27
2018-11-23T00:23:45.649Z,26.87
2018-11-23T00:26:20.729Z,35.00
2018-11-23T00:28:55.076Z,31.87
2018-11-23T00:31:29.686Z,34.63
2018-11-23T00:34:04.530Z,34.20
2018-11-23T00:36:38.868Z,28.00
2018-11-23T00:39:14.288Z,37.07
2018-11-23T00:41:49.590Z,31.63
2018-11-23T00:44:24.073Z,30.90
2018-11-23T00:46:59.065Z,29.77
2018-11-23T00:49:33.508Z,34.10
2018-11-23T00:52:08.564Z,32.97
2018-11-23T00:54:43.001Z,33.37
2018-11-23T00:57:18.161Z,33.13
2018-11-23T00:59:52.830Z,25.93
2018-11-23T01:02:27.773Z,28.30
2018-11-23T01:05:03.197Z,33.43
2018-11-23T01:07:37.933Z,31.73
2018-11-23T01:10:13.647Z,33.90
2018-11-23T01:12:55.255Z,32.70
2018-11-23T01:15:30.148Z,34.10
2018-11-23T01:18:06.696Z,35.83
2018-11-23T01:20:41.124Z,39.00
2018-11-23T01:23:16.476Z,35.57
2018-11-23T01:25:52.008Z,35.27
2018-11-23T01:28:26.641Z,36.70
2018-11-23T01:31:01.413Z,33.63
2018-11-23T01:33:35.773Z,33.00
2018-11-23T01:36:10.289Z,35.83
2018-11-23T01:38:44.817Z,39.57
2018-11-23T01:41:20.176Z,33.43
2018-11-23T01:43:54.721Z,33.17
2018-11-23T01:46:30.072Z,35.07
2018-11-23T01:49:04.592Z,35.73
2018-11-23T01:51:39.722Z,33.23
2018-11-23T01:54:14.081Z,39.37
2018-11-23T01:56:49.780Z,36.63
2018-11-23T01:59:24.840Z,36.70
2018-11-23T02:01:59.744Z,33.57
2018-11-23T02:04:34.652Z,37.60
2018-11-23T02:07:09.298Z,38.80
2018-11-23T02:09:43.808Z,39.87
2018-11-23T02:12:18.506Z,39.30
2018-11-23T02:14:53.786Z,30.53
2018-11-23T02:17:29.123Z,34.23
2018-11-23T02:20:04.141Z,43.10
2018-11-23T02:22:38.849Z,35.90
2018-11-23T02:25:14.165Z,38.80
2018-11-23T02:27:48.538Z,43.80
2018-11-23T02:30:25.105Z,36.43
2018-11-23T02:32:59.427Z,36.57
2018-11-23T02:35:34.725Z,30.87
2018-11-23T02:38:09.165Z,40.13
2018-11-23T02:40:44.285Z,39.80
2018-11-23T02:43:18.671Z,35.77
2018-11-23T02:45:53.808Z,40.00
2018-11-23T02:48:28.284Z,35.10
2018-11-23T02:51:03.092Z,41.73
2018-11-23T02:53:38.291Z,37.60
2018-11-23T02:56:13.759Z,32.67
2018-11-23T02:58:48.319Z,37.47
2018-11-23T03:01:23.374Z,35.03
2018-11-23T03:03:58.493Z,36.40
2018-11-23T03:06:33.141Z,41.83
2018-11-23T03:09:08.853Z,38.00
2018-11-23T03:11:43.459Z,37.50
2018-11-23T03:14:18.767Z,32.57
2018-11-23T03:17:10.218Z,28.47
2018-11-23T03:19:45.109Z,35.20
2018-11-23T03:22:19.630Z,34.00
2018-11-23T03:24:59.300Z,36.20
2018-11-23T03:27:33.896Z,35.87
2018-11-23T03:30:11.145Z,38.03
2018-11-23T03:32:47.204Z,38.70
2018-11-23T03:35:26.818Z,42.50
2018-11-23T03:38:01.338Z,33.03
2018-11-23T03:40:36.368Z,38.00
2018-11-23T03:43:11.236Z,38.27
2018-11-23T03:45:46.738Z,37.53
2018-11-23T03:48:21.104Z,38.73
2018-11-23T03:50:55.781Z,39.97
2018-11-23T03:53:30.930Z,36.33
2018-11-23T03:56:06.313Z,38.33
2018-11-23T03:58:41.746Z,38.20
2018-11-23T04:01:16.260Z,29.67
2018-11-23T04:03:51.725Z,39.23
2018-11-23T04:06:26.112Z,36.90
2018-11-23T04:09:00.609Z,43.90
2018-11-23T04:11:35.242Z,41.13
2018-11-23T04:14:09.773Z,40.93
2018-11-23T04:16:46.510Z,36.63
2018-11-23T04:19:21.682Z,40.53
2018-11-23T04:21:56.253Z,39.17
2018-11-23T04:24:31.857Z,33.93
2018-11-23T04:27:07.013Z,46.13
2018-11-23T04:29:41.400Z,35.50
2018-11-23T04:32:16.085Z,32.93
2018-11-23T04:34:50.609Z,38.47
2018-11-23T04:37:25.711Z,40.23
2018-11-23T04:40:00.732Z,29.77
2018-11-23T04:42:35.377Z,31.37
2018-11-23T04:45:11.220Z,38.47
2018-11-23T04:47:45.667Z,35.87
2018-11-23T04:50:20.024Z,36.50
2018-11-23T04:52:55.489Z,42.50
2018-11-23T04:55:30.427Z,31.43
2018-11-23T04:58:05.571Z,36.80
2018-11-23T05:00:39.880Z,37.50
2018-11-23T05:03:14.912Z,37.57
2018-11-23T05:05:49.362Z,39.27
2018-11-23T05:08:24.300Z,35.40
2018-11-23T05:10:58.796Z,41.93
2018-11-23T05:13:33.289Z,32.90
2018-11-23T05:16:08.657Z,46.97
2018-11-23T05:18:44.096Z,35.53
2018-11-23T05:21:19.101Z,35.77
2018-11-23T05:23:54.452Z,39.93
2018-11-23T05:26:29.629Z,36.47
2018-11-23T05:29:04.012Z,35.57
2018-11-23T05:31:38.433Z,34.17
2018-11-23T05:34:12.920Z,28.83
2018-11-23T05:36:48.289Z,36.10
2018-11-23T05:39:34.201Z,33.40
2018-11-23T05:42:08.696Z,43.00
2018-11-23T05:44:43.423Z,38.50
2018-11-23T05:47:18.754Z,41.40
2018-11-23T05:49:53.093Z,42.03
2018-11-23T05:52:28.157Z,35.10
2018-11-23T05:55:03.369Z,41.80
2018-11-23T05:57:38.848Z,37.03
2018-11-23T06:00:16.562Z,36.80
2018-11-23T06:02:51.821Z,41.70
2018-11-23T06:05:26.352Z,38.67
2018-11-23T06:10:41.413Z,34.20
2018-11-23T06:13:16.550Z,34.07
2018-11-23T06:15:52.093Z,37.90
2018-11-23T06:18:38.388Z,40.50
2018-11-23T06:21:12.950Z,42.50
2018-11-23T06:25:17.098Z,35.43
2018-11-23T06:27:52.112Z,43.00
2018-11-23T06:30:27.535Z,44.00
2018-11-23T06:33:13.619Z,40.93
2018-11-23T06:35:48.736Z,36.00
2018-11-23T06:38:23.345Z,40.60
2018-11-23T06:40:59.406Z,32.70
2018-11-23T06:43:33.080Z,30.67
2018-11-23T06:46:09.893Z,36.70
2018-11-23T06:48:44.443Z,29.13
2018-11-23T06:51:19.605Z,39.00
2018-11-23T06:53:55.802Z,38.60
2018-11-23T06:56:30.966Z,35.27
2018-11-23T06:59:06.049Z,36.80
2018-11-23T07:01:40.512Z,36.67
2018-11-23T07:04:15.708Z,39.10
2018-11-23T07:06:51.006Z,40.83
2018-11-23T07:09:25.436Z,37.97
2018-11-23T07:12:00.287Z,44.47
2018-11-23T07:14:34.618Z,34.73
2018-11-23T07:17:13.980Z,41.07
2018-11-23T07:19:49.365Z,34.43
2018-11-23T07:22:24.058Z,37.20
2018-11-23T07:24:59.032Z,36.10
2018-11-23T07:27:33.718Z,39.27
2018-11-23T07:30:23.700Z,44.40
2018-11-23T07:32:58.123Z,45.40
2018-11-23T07:35:33.151Z,40.13
2018-11-23T07:38:07.601Z,40.40
2018-11-23T07:40:54.618Z,52.67
2018-11-23T07:43:29.037Z,42.57
2018-11-23T07:46:04.141Z,37.73
2018-11-23T07:48:38.648Z,42.63
2018-11-23T07:51:14.565Z,41.13
2018-11-23T07:53:51.228Z,48.17
2018-11-23T07:56:25.749Z,44.20
2018-11-23T07:59:01.117Z,53.47
2018-11-23T08:01:35.612Z,44.77
2018-11-23T08:04:10.713Z,37.50
2018-11-23T08:06:45.086Z,41.03
2018-11-23T08:09:19.524Z,42.17
2018-11-23T08:11:53.968Z,37.03
2018-11-23T08:14:29.256Z,42.20
2018-11-23T08:17:11.909Z,37.83
2018-11-23T08:19:47.456Z,40.50
2018-11-23T08:22:22.257Z,52.30
2018-11-23T08:25:00.589Z,54.67
2018-11-23T08:27:36.114Z,41.67
2018-11-23T08:30:14.624Z,41.60
2018-11-23T08:32:49.729Z,39.63
2018-11-23T08:35:28.689Z,49.90
2018-11-23T08:38:03.076Z,46.00
2018-11-23T08:40:38.377Z,42.00
2018-11-23T08:43:12.833Z,51.80
2018-11-23T08:45:48.197Z,44.57
2018-11-23T08:48:23.208Z,50.93
2018-11-23T08:50:57.829Z,43.23
2018-11-23T08:56:15.239Z,47.23
2018-11-23T08:58:50.541Z,45.40
2018-11-23T09:01:25.091Z,43.63
2018-11-23T09:04:00.492Z,39.90
2018-11-23T09:06:34.964Z,54.40
2018-11-23T09:09:10.473Z,46.50
2018-11-23T09:11:45.176Z,40.70
2018-11-23T09:14:19.512Z,32.03
2018-11-23T09:17:10.155Z,37.60
2018-11-23T09:19:45.452Z,43.97
2018-11-23T09:22:23.541Z,37.70
2018-11-23T09:24:55.515Z,47.03
2018-11-23T09:27:30.661Z,35.93
2018-11-23T09:30:08.770Z,42.83
2018-11-23T09:32:43.687Z,39.83
2018-11-23T09:35:26.115Z,33.90
2018-11-23T09:38:01.094Z,35.40
2018-11-23T09:40:36.436Z,40.47
2018-11-23T09:43:10.781Z,37.33
2018-11-23T09:45:45.987Z,36.73
2018-11-23T09:48:20.504Z,33.00
2018-11-23T09:50:54.982Z,34.97
2018-11-23T09:53:30.272Z,34.23
2018-11-23T09:56:05.341Z,31.67
2018-11-23T09:58:43.718Z,33.93
2018-11-23T10:01:14.993Z,37.27
2018-11-23T10:03:50.205Z,30.33
2018-11-23T10:06:24.723Z,41.53
2018-11-23T10:08:59.223Z,36.50
2018-11-23T10:11:33.710Z,29.47
2018-11-23T10:14:08.872Z,36.47
2018-11-23T10:16:43.323Z,33.83
2018-11-23T10:19:26.256Z,36.13
2018-11-23T10:22:00.772Z,32.90
2018-11-23T10:24:35.072Z,37.77
2018-11-23T10:27:10.480Z,31.23
2018-11-23T10:29:44.953Z,29.23
2018-11-23T10:32:20.329Z,32.27
2018-11-23T10:34:55.736Z,35.43
2018-11-23T10:37:30.764Z,32.47
2018-11-23T10:40:09.119Z,37.30
2018-11-23T10:42:43.997Z,27.80
2018-11-23T10:45:26.191Z,35.07
2018-11-23T10:48:02.762Z,34.40
2018-11-23T10:50:38.788Z,36.00
2018-11-23T10:53:15.108Z,34.00
2018-11-23T10:55:50.144Z,36.90
2018-11-23T10:58:25.264Z,28.90
2018-11-23T11:01:05.216Z,25.57
2018-11-23T11:05:48.773Z,34.67
2018-11-23T11:08:23.302Z,30.67
2018-11-23T11:10:58.009Z,33.30
2018-11-23T11:13:32.392Z,33.70
2018-11-23T11:16:07.759Z,32.50
2018-11-23T11:18:43.104Z,33.00
2018-11-23T11:21:17.466Z,30.80
2018-11-23T11:23:52.437Z,26.97
2018-11-23T11:26:27.704Z,31.70
2018-11-23T11:29:02.196Z,31.70
2018-11-23T11:31:36.944Z,29.37
2018-11-23T11:34:11.580Z,27.80
2018-11-23T11:36:46.789Z,28.73
2018-11-23T11:39:37.429Z,35.43
2018-11-23T11:42:12.264Z,28.53
2018-11-23T11:44:46.572Z,33.03
2018-11-23T11:47:21.512Z,33.00
2018-11-23T11:49:59.141Z,32.27
2018-11-23T11:52:31.329Z,25.43
2018-11-23T11:55:08.049Z,28.27
2018-11-23T11:57:43.362Z,29.90
2018-11-23T12:00:21.415Z,26.70
2018-11-23T12:02:56.741Z,26.77
2018-11-23T12:05:31.076Z,24.47
2018-11-23T12:08:05.952Z,26.23
2018-11-23T12:10:40.376Z,26.33
2018-11-23T12:13:15.025Z,29.00
2018-11-23T12:15:49.470Z,29.80
2018-11-23T12:18:24.888Z,29.33
2018-11-23T12:20:59.396Z,28.07
2018-11-23T12:23:33.798Z,26.83
2018-11-23T12:26:09.068Z,23.47
2018-11-23T12:28:43.673Z,32.60
2018-11-23T12:31:18.026Z,31.40
2018-11-23T12:33:52.709Z,25.70
2018-11-23T12:36:28.413Z,29.07
2018-11-23T12:39:03.045Z,26.37
2018-11-23T12:41:38.122Z,23.53
2018-11-23T12:44:12.649Z,27.53
2018-11-23T12:46:48.083Z,27.10
2018-11-23T12:49:22.627Z,25.57
2018-11-23T12:51:57.812Z,28.50
2018-11-23T12:54:33.244Z,26.53
2018-11-23T12:59:47.987Z,30.33
2018-11-23T13:02:23.112Z,25.70
2018-11-23T13:04:58.619Z,27.37
2018-11-23T13:07:33.326Z,24.80
2018-11-23T13:10:07.769Z,31.10
2018-11-23T13:12:42.184Z,27.07
2018-11-23T13:15:16.783Z,23.23
2018-11-23T13:17:52.422Z,25.50
2018-11-23T13:20:27.499Z,20.30
2018-11-23T13:23:02.013Z,25.90
2018-11-23T13:25:36.617Z,24.70
2018-11-23T13:28:11.591Z,28.37
2018-11-23T13:30:45.989Z,19.97
2018-11-23T13:33:20.612Z,23.70
2018-11-23T13:35:55.958Z,27.27
2018-11-23T13:38:31.072Z,31.13
2018-11-23T13:41:06.535Z,20.47
2018-11-23T13:43:40.865Z,26.17
2018-11-23T13:46:16.260Z,26.30
2018-11-23T13:48:50.617Z,30.83
2018-11-23T13:51:26.144Z,27.67
2018-11-23T13:54:01.377Z,23.40
2018-11-23T13:56:36.336Z,28.23
2018-11-23T13:59:11.591Z,25.07
2018-11-23T14:01:46.349Z,28.33
2018-11-23T14:04:21.721Z,25.40
2018-11-23T14:06:56.368Z,28.97
2018-11-23T14:09:31.589Z,30.43
2018-11-23T14:12:06.185Z,27.30
2018-11-23T14:14:40.689Z,28.67
2018-11-23T14:17:16.281Z,30.07
2018-11-23T14:19:51.862Z,28.73
2018-11-23T14:22:26.759Z,29.80
2018-11-23T14:25:01.190Z,33.90
2018-11-23T14:27:36.875Z,28.87
2018-11-23T14:30:14.058Z,24.43
2018-11-23T14:32:49.200Z,26.27
2018-11-23T14:35:31.322Z,31.47
2018-11-23T14:38:05.912Z,25.23
2018-11-23T14:40:40.909Z,33.80
2018-11-23T14:43:15.569Z,26.63
2018-11-23T14:45:50.759Z,23.77
2018-11-23T14:48:25.290Z,33.53
2018-11-23T14:50:59.912Z,27.00
2018-11-23T14:53:34.872Z,25.80
2018-11-23T14:56:10.340Z,24.40
2018-11-23T14:58:44.664Z,30.60
2018-11-23T15:01:19.664Z,28.30
2018-11-23T15:03:54.737Z,23.10
2018-11-23T15:06:29.294Z,27.83
2018-11-23T15:09:04.672Z,31.10
2018-11-23T15:11:39.606Z,30.57
2018-11-23T15:14:13.931Z,29.50
2018-11-23T15:16:48.349Z,29.83
2018-11-23T15:19:23.489Z,25.43
2018-11-23T15:21:58.029Z,26.83
2018-11-23T15:24:32.567Z,28.47
2018-11-23T15:27:07.636Z,31.13
2018-11-23T15:29:42.146Z,30.30
2018-11-23T15:32:16.602Z,24.70
2018-11-23T15:34:51.186Z,30.00
2018-11-23T15:37:26.788Z,26.80
2018-11-23T15:40:02.627Z,24.23
2018-11-23T15:42:37.266Z,26.77
2018-11-23T15:45:14.545Z,25.47
2018-11-23T15:47:49.957Z,25.57
2018-11-23T15:50:25.950Z,25.27
2018-11-23T15:53:01.024Z,31.40
2018-11-23T15:55:38.516Z,27.50
2018-11-23T15:58:14.320Z,25.57
2018-11-23T16:00:53.525Z,29.70
2018-11-23T16:03:29.009Z,26.17
2018-11-23T16:06:03.404Z,28.30
2018-11-23T16:08:37.796Z,25.17
2018-11-23T16:11:12.144Z,24.37
2018-11-23T16:13:47.117Z,28.60
2018-11-23T16:16:21.709Z,27.60
2018-11-23T16:18:57.445Z,24.43
2018-11-23T16:21:31.825Z,25.13
2018-11-23T16:24:07.075Z,26.20
2018-11-23T16:26:42.491Z,27.73
2018-11-23T16:29:17.067Z,25.73
2018-11-23T16:31:52.648Z,24.03
2018-11-23T16:34:27.297Z,28.10
2018-11-23T16:37:02.501Z,26.63
2018-11-23T16:39:46.372Z,24.87
2018-11-23T16:42:20.867Z,31.27
2018-11-23T16:44:55.452Z,26.17
2018-11-23T16:47:31.823Z,26.97
2018-11-23T16:50:07.487Z,25.67
2018-11-23T16:52:43.946Z,28.23
2018-11-23T16:55:20.783Z,24.70
2018-11-23T16:57:58.837Z,27.50
2018-11-23T17:00:36.100Z,22.10
2018-11-23T17:03:17.227Z,25.60
2018-11-23T17:05:55.353Z,30.90
2018-11-23T17:08:30.968Z,26.20
2018-11-23T17:11:05.569Z,26.40
2018-11-23T17:13:40.916Z,26.80
2018-11-23T17:16:16.240Z,27.90
2018-11-23T17:18:52.089Z,24.53
2018-11-23T17:21:27.848Z,31.73
2018-11-23T17:24:03.154Z,23.10
2018-11-23T17:26:40.024Z,29.70
2018-11-23T17:29:18.328Z,25.27
2018-11-23T17:31:51.795Z,31.53
2018-11-23T17:34:27.789Z,27.87
2018-11-23T17:37:05.435Z,31.70
2018-11-23T17:39:47.577Z,34.03
2018-11-23T17:42:22.601Z,31.10
2018-11-23T17:44:58.127Z,31.90
2018-11-23T17:47:34.858Z,23.80
2018-11-23T17:50:11.544Z,30.33
2018-11-23T17:52:50.537Z,30.80
2018-11-23T17:55:26.933Z,36.73
2018-11-23T17:58:02.259Z,29.07
2018-11-23T18:00:39.282Z,25.80
2018-11-23T18:03:13.499Z,26.80
2018-11-23T18:05:48.133Z,28.23
2018-11-23T18:08:22.612Z,29.87
2018-11-23T18:10:57.129Z,34.47
2018-11-23T18:13:31.552Z,29.83
2018-11-23T18:16:06.488Z,27.50
2018-11-23T18:18:42.979Z,29.93
2018-11-23T18:21:18.282Z,28.50
2018-11-23T18:23:52.977Z,30.10
2018-11-23T18:26:28.769Z,28.50
2018-11-23T18:29:03.315Z,25.50
2018-11-23T18:31:38.049Z,26.33
2018-11-23T18:34:12.635Z,25.87
2018-11-23T18:36:48.392Z,26.23
2018-11-23T18:39:22.880Z,31.77
2018-11-23T18:41:58.997Z,30.17
2018-11-23T18:44:33.430Z,27.80
2018-11-23T18:47:10.416Z,36.53
2018-11-23T18:49:44.962Z,34.37
2018-11-23T18:52:21.511Z,26.57
2018-11-23T18:54:58.313Z,30.10
2018-11-23T18:57:32.956Z,26.40
2018-11-23T19:00:13.758Z,25.83
2018-11-23T19:02:50.931Z,24.63
2018-11-23T19:05:27.696Z,26.33
2018-11-23T19:08:02.227Z,32.30
2018-11-23T19:10:36.942Z,25.10
2018-11-23T19:13:11.365Z,29.17
2018-11-23T19:15:46.083Z,31.10
2018-11-23T19:18:22.701Z,29.10
2018-11-23T19:20:57.152Z,32.17
2018-11-23T19:23:33.071Z,27.07
2018-11-23T19:26:09.393Z,28.20
2018-11-23T19:28:43.824Z,26.73
2018-11-23T19:31:18.784Z,28.17
2018-11-23T19:33:59.130Z,35.03
2018-11-23T19:36:28.989Z,28.73
2018-11-23T19:39:03.549Z,32.23
2018-11-23T19:41:38.827Z,31.13
2018-11-23T19:44:13.332Z,31.67
2018-11-23T19:46:49.720Z,32.40
2018-11-23T19:49:24.724Z,32.17
2018-11-23T19:52:00.917Z,28.77
2018-11-23T19:54:36.708Z,33.10
2018-11-23T19:57:11.333Z,34.23
2018-11-23T19:59:46.078Z,33.67
2018-11-23T20:02:21.465Z,32.30
2018-11-23T20:04:57.428Z,32.47
2018-11-23T20:07:31.906Z,34.47
2018-11-23T20:10:10.697Z,30.60
2018-11-23T20:12:46.233Z,26.90
2018-11-23T20:15:20.770Z,27.40
2018-11-23T20:17:55.997Z,26.07
2018-11-23T20:20:31.961Z,35.27
2018-11-23T20:23:07.188Z,28.10
2018-11-23T20:25:41.742Z,31.40
2018-11-23T20:28:18.201Z,34.37
2018-11-23T20:30:52.603Z,33.23
2018-11-23T20:33:27.015Z,31.47
2018-11-23T20:36:02.145Z,35.60
2018-11-23T20:38:36.736Z,26.90
2018-11-23T20:41:11.806Z,30.87
2018-11-23T20:43:46.248Z,29.13
2018-11-23T20:46:22.606Z,37.17
2018-11-23T20:48:57.170Z,30.77
2018-11-23T20:51:34.217Z,34.30
2018-11-23T20:54:10.863Z,31.00
2018-11-23T20:56:45.495Z,32.17
2018-11-23T20:59:20.157Z,32.17
2018-11-23T21:02:00.202Z,31.90
2018-11-23T21:04:36.085Z,30.93
2018-11-23T21:07:10.497Z,30.63
2018-11-23T21:09:45.341Z,32.50
2018-11-23T21:12:19.852Z,32.53
2018-11-23T21:14:54.344Z,28.93
2018-11-23T21:17:30.345Z,31.30
2018-11-23T21:20:06.669Z,22.33
2018-11-23T21:22:41.270Z,35.20
2018-11-23T21:25:16.124Z,30.60
2018-11-23T21:27:51.573Z,34.37
2018-11-23T21:30:26.149Z,30.37
2018-11-23T21:33:00.672Z,32.33
2018-11-23T21:35:35.926Z,30.40
2018-11-23T21:38:10.380Z,35.90
2018-11-23T21:40:45.995Z,29.73
2018-11-23T21:43:20.497Z,35.00
2018-11-23T21:45:58.239Z,36.97
2018-11-23T21:48:32.644Z,37.03
2018-11-23T21:51:06.960Z,32.70
2018-11-23T21:53:48.716Z,32.80
2018-11-23T21:56:23.263Z,28.67
2018-11-23T21:58:57.946Z,31.47
2018-11-23T22:01:32.885Z,31.80
2018-11-23T22:04:07.954Z,34.20
2018-11-23T22:06:42.379Z,29.90
2018-11-23T22:09:16.717Z,34.87
2018-11-23T22:11:52.416Z,27.60
2018-11-23T22:14:25.639Z,32.17
2018-11-23T22:17:13.154Z,30.33
2018-11-23T22:19:48.648Z,32.77
2018-11-23T22:22:22.946Z,35.67
2018-11-23T22:24:57.434Z,24.77
2018-11-23T22:27:33.019Z,25.90
2018-11-23T22:30:12.610Z,26.53
2018-11-23T22:32:47.040Z,25.27
2018-11-23T22:38:02.421Z,27.60
2018-11-23T22:40:37.638Z,29.30
2018-11-23T22:43:12.133Z,32.37
2018-11-23T22:45:46.814Z,33.10
2018-11-23T22:48:22.023Z,27.90
2018-11-23T22:50:56.673Z,30.73
2018-11-23T22:53:31.992Z,28.20
2018-11-23T22:56:07.372Z,23.33
2018-11-23T22:58:41.808Z,29.37
2018-11-23T23:01:18.313Z,29.00
2018-11-23T23:03:53.551Z,25.23
2018-11-23T23:06:28.350Z,25.47
2018-11-23T23:09:02.922Z,25.90
2018-11-23T23:11:37.878Z,24.43
2018-11-23T23:14:12.405Z,25.07
2018-11-23T23:16:46.915Z,29.07
2018-11-23T23:19:22.080Z,29.57
2018-11-23T23:21:56.443Z,24.63
2018-11-23T23:24:30.861Z,24.30
2018-11-23T23:27:06.045Z,25.13
2018-11-23T23:29:40.509Z,27.73
2018-11-23T23:32:15.023Z,21.67
2018-11-23T23:34:49.461Z,22.20
2018-11-23T23:37:24.759Z,29.30
2018-11-23T23:40:08.523Z,22.63
2018-11-23T23:42:43.112Z,26.97
2018-11-23T23:45:18.945Z,22.70
2018-11-23T23:47:54.300Z,22.33
2018-11-23T23:50:28.808Z,29.70
2018-11-23T23:53:03.749Z,24.83
2018-11-23T23:55:38.893Z,23.80
2018-11-23T23:58:13.340Z,23.13
